createdAt,value
2018-02-03T00:00:02.500Z,76.70
2018-02-03T00:02:30.968Z,75.80
2018-02-03T00:04:59.347Z,75.20
2018-02-03T00:07:26.935Z,75.70
2018-02-03T00:09:55.324Z,75.60
2018-02-03T00:12:22.947Z,75.60
2018-02-03T00:14:51.324Z,75.60
2018-02-03T00:17:18.916Z,75.60
2018-02-03T00:19:46.556Z,75.60
2018-02-03T00:22:14.923Z,76.30
2018-02-03T00:24:42.596Z,75.70
2018-02-03T00:27:10.188Z,75.70
2018-02-03T00:29:37.822Z,75.70
2018-02-03T00:32:05.484Z,75.60
2018-02-03T00:34:33.861Z,75.50
2018-02-03T00:37:01.524Z,75.50
2018-02-03T00:39:29.113Z,75.40
2018-02-03T00:41:56.748Z,75.30
2018-02-03T00:44:24.341Z,75.30
2018-02-03T00:46:51.960Z,76.20
2018-02-03T00:49:19.590Z,75.40
2018-02-03T00:51:47.291Z,75.40
2018-02-03T00:54:14.957Z,75.50
2018-02-03T00:56:42.572Z,75.60
2018-02-03T00:59:10.168Z,75.60
2018-02-03T01:01:37.778Z,75.60
2018-02-03T01:04:05.367Z,75.60
2018-02-03T01:06:33.058Z,75.70
2018-02-03T01:09:00.732Z,75.80
2018-02-03T01:11:29.922Z,76.00
2018-02-03T01:13:57.516Z,75.90
2018-02-03T01:16:25.148Z,75.90
2018-02-03T01:18:52.811Z,76.00
2018-02-03T01:21:20.484Z,76.00
2018-02-03T01:23:48.864Z,76.00
2018-02-03T01:26:17.240Z,76.10
2018-02-03T01:28:45.676Z,76.00
2018-02-03T01:31:13.276Z,76.10
2018-02-03T01:33:40.944Z,76.20
2018-02-03T01:36:09.300Z,76.40
2018-02-03T01:38:36.911Z,76.40
2018-02-03T01:41:04.501Z,76.30
2018-02-03T01:43:32.107Z,76.20
2018-02-03T01:45:59.766Z,76.10
2018-02-03T01:48:27.434Z,77.00
2018-02-03T01:50:55.807Z,76.30
2018-02-03T01:53:23.467Z,76.30
2018-02-03T01:55:51.068Z,76.20
2018-02-03T01:58:18.679Z,76.30
2018-02-03T02:00:46.262Z,76.30
2018-02-03T02:03:13.880Z,76.20
2018-02-03T02:05:41.466Z,76.30
2018-02-03T02:08:09.085Z,76.40
2018-02-03T02:10:36.701Z,76.50
2018-02-03T02:13:04.333Z,76.50
2018-02-03T02:15:31.924Z,76.30
2018-02-03T02:17:59.583Z,76.50
2018-02-03T02:20:28.783Z,76.40
2018-02-03T02:22:56.375Z,76.30
2018-02-03T02:25:24.832Z,76.20
2018-02-03T02:27:52.419Z,76.10
2018-02-03T02:30:20.809Z,76.00
2018-02-03T02:32:48.405Z,76.00
2018-02-03T02:35:16.022Z,75.90
2018-02-03T02:37:43.655Z,75.80
2018-02-03T02:40:11.318Z,75.80
2018-02-03T02:42:38.913Z,75.90
2018-02-03T02:45:06.523Z,75.80
2018-02-03T02:47:34.107Z,75.80
2018-02-03T02:50:01.759Z,75.90
2018-02-03T02:52:29.426Z,75.70
2018-02-03T02:54:57.089Z,75.70
2018-02-03T02:57:25.452Z,75.80
2018-02-03T02:59:53.127Z,75.70
2018-02-03T03:02:20.714Z,75.80
2018-02-03T03:04:49.076Z,75.90
2018-02-03T03:07:16.737Z,75.90
2018-02-03T03:09:44.323Z,75.80
2018-02-03T03:12:12.707Z,75.90
2018-02-03T03:14:40.334Z,75.80
2018-02-03T03:17:07.999Z,75.90
2018-02-03T03:19:35.596Z,75.80
2018-02-03T03:22:03.233Z,75.70
2018-02-03T03:24:31.596Z,75.70
2018-02-03T03:26:59.265Z,75.60
2018-02-03T03:29:26.922Z,75.60
2018-02-03T03:31:54.596Z,75.70
2018-02-03T03:34:22.182Z,76.40
2018-02-03T03:36:50.630Z,75.30
2018-02-03T03:39:18.304Z,75.20
2018-02-03T03:41:46.680Z,74.80
2018-02-03T03:44:14.345Z,74.80
2018-02-03T03:46:41.998Z,74.70
2018-02-03T03:49:10.488Z,74.40
2018-02-03T03:51:38.075Z,74.40
2018-02-03T03:54:06.524Z,74.40
2018-02-03T03:56:34.875Z,74.40
2018-02-03T03:59:02.496Z,74.40
2018-02-03T04:01:30.126Z,74.60
2018-02-03T04:03:57.787Z,74.90
2018-02-03T04:06:25.455Z,74.90
2018-02-03T04:08:53.071Z,75.20
2018-02-03T04:11:20.655Z,75.30
2018-02-03T04:13:48.339Z,75.30
2018-02-03T04:16:15.924Z,75.50
2018-02-03T04:18:44.294Z,75.80
2018-02-03T04:21:12.770Z,76.10
2018-02-03T04:23:41.240Z,76.30
2018-02-03T04:26:09.592Z,76.30
2018-02-03T04:28:37.291Z,76.30
2018-02-03T04:31:05.652Z,76.70
2018-02-03T04:33:33.269Z,76.60
2018-02-03T04:36:00.868Z,76.80
2018-02-03T04:38:28.547Z,76.90
2018-02-03T04:40:56.210Z,77.00
2018-02-03T04:43:23.795Z,77.10
2018-02-03T04:45:52.175Z,77.20
2018-02-03T04:48:20.524Z,77.20
2018-02-03T04:50:48.131Z,77.20
2018-02-03T04:53:15.755Z,77.20
2018-02-03T04:55:43.424Z,77.20
2018-02-03T04:58:11.083Z,77.20
2018-02-03T05:00:38.691Z,77.30
2018-02-03T05:03:06.274Z,77.40
2018-02-03T05:05:33.887Z,77.30
2018-02-03T05:08:02.256Z,77.30
2018-02-03T05:10:30.634Z,77.30
2018-02-03T05:12:58.994Z,77.40
2018-02-03T05:15:26.611Z,77.40
2018-02-03T05:17:54.208Z,77.50
2018-02-03T05:20:21.824Z,77.70
2018-02-03T05:22:49.451Z,77.70
2018-02-03T05:25:17.111Z,77.80
2018-02-03T05:27:44.780Z,77.90
2018-02-03T05:30:12.398Z,77.90
2018-02-03T05:32:40.017Z,78.30
2018-02-03T05:35:08.366Z,77.80
2018-02-03T05:37:35.979Z,77.80
2018-02-03T05:40:03.562Z,77.90
2018-02-03T05:42:31.167Z,78.50
2018-02-03T05:44:58.765Z,77.80
2018-02-03T05:47:26.379Z,78.10
2018-02-03T05:49:54.043Z,77.80
2018-02-03T05:52:21.716Z,77.70
2018-02-03T05:54:49.377Z,77.70
2018-02-03T05:57:17.034Z,77.70
2018-02-03T05:59:44.661Z,77.70
2018-02-03T06:02:12.266Z,77.50
2018-02-03T06:04:39.857Z,77.40
2018-02-03T06:07:07.471Z,77.00
2018-02-03T06:09:35.073Z,77.00
2018-02-03T06:12:03.527Z,76.80
2018-02-03T06:14:31.182Z,76.60
2018-02-03T06:16:58.847Z,76.30
2018-02-03T06:19:26.526Z,76.20
2018-02-03T06:21:54.175Z,76.30
2018-02-03T06:24:21.789Z,76.10
2018-02-03T06:26:49.400Z,76.00
2018-02-03T06:29:17.017Z,76.10
2018-02-03T06:31:44.604Z,76.90
2018-02-03T06:34:12.278Z,76.50
2018-02-03T06:36:40.680Z,77.60
2018-02-03T06:39:08.269Z,77.60
2018-02-03T06:41:35.848Z,77.80
2018-02-03T06:44:03.551Z,77.80
2018-02-03T06:46:31.147Z,77.70
2018-02-03T06:48:58.771Z,77.60
2018-02-03T06:51:26.430Z,77.40
2018-02-03T06:53:54.031Z,77.20
2018-02-03T06:56:21.654Z,77.30
2018-02-03T06:58:49.315Z,77.50
2018-02-03T07:01:16.891Z,77.50
2018-02-03T07:03:44.501Z,77.50
2018-02-03T07:06:12.099Z,78.00
2018-02-03T07:08:39.703Z,77.60
2018-02-03T07:11:07.290Z,77.50
2018-02-03T07:13:34.872Z,77.40
2018-02-03T07:16:02.603Z,77.30
2018-02-03T07:18:30.923Z,77.20
2018-02-03T07:20:58.522Z,77.20
2018-02-03T07:23:26.866Z,77.00
2018-02-03T07:25:54.480Z,76.90
2018-02-03T07:28:22.091Z,76.90
2018-02-03T07:30:49.687Z,76.90
2018-02-03T07:33:18.140Z,76.60
2018-02-03T07:35:45.743Z,76.50
2018-02-03T07:38:13.364Z,77.20
2018-02-03T07:40:41.018Z,76.30
2018-02-03T07:43:08.683Z,76.30
2018-02-03T07:45:36.343Z,76.10
2018-02-03T07:48:04.076Z,76.20
2018-02-03T07:50:31.671Z,75.90
2018-02-03T07:52:59.246Z,75.80
2018-02-03T07:55:26.890Z,75.90
2018-02-03T07:57:55.270Z,76.60
2018-02-03T08:00:22.940Z,75.90
2018-02-03T08:02:50.543Z,75.50
2018-02-03T08:05:18.168Z,75.60
2018-02-03T08:07:45.832Z,75.50
2018-02-03T08:10:13.483Z,75.50
2018-02-03T08:12:41.087Z,75.90
2018-02-03T08:15:08.673Z,75.70
2018-02-03T08:17:36.271Z,75.90
2018-02-03T08:20:03.940Z,75.90
2018-02-03T08:22:31.546Z,75.60
2018-02-03T08:24:59.127Z,75.10
2018-02-03T08:27:26.814Z,75.10
2018-02-03T08:29:54.478Z,74.80
2018-02-03T08:32:22.152Z,74.80
2018-02-03T08:34:49.816Z,75.20
2018-02-03T08:37:17.433Z,75.20
2018-02-03T08:39:45.027Z,75.20
2018-02-03T08:42:12.602Z,75.30
2018-02-03T08:44:40.251Z,75.30
2018-02-03T08:47:07.920Z,75.50
2018-02-03T08:49:35.532Z,75.20
2018-02-03T08:52:03.118Z,74.70
2018-02-03T08:54:30.714Z,74.50
2018-02-03T08:56:58.295Z,74.50
2018-02-03T08:59:26.675Z,74.30
2018-02-03T09:01:55.024Z,74.50
2018-02-03T09:04:22.623Z,74.50
2018-02-03T09:06:50.198Z,74.20
2018-02-03T09:09:17.906Z,74.00
2018-02-03T09:11:57.443Z,74.00
2018-02-03T09:14:25.056Z,73.90
2018-02-03T09:16:52.641Z,73.70
2018-02-03T09:19:20.276Z,73.90
2018-02-03T09:21:47.863Z,74.00
2018-02-03T09:24:15.439Z,73.80
2018-02-03T09:26:43.059Z,73.90
2018-02-03T09:29:10.668Z,73.10
2018-02-03T09:31:39.055Z,73.00
2018-02-03T09:34:07.440Z,73.10
2018-02-03T09:36:35.105Z,73.90
2018-02-03T09:39:03.480Z,72.90
2018-02-03T09:41:31.082Z,73.00
2018-02-03T09:43:58.671Z,73.20
2018-02-03T09:46:26.275Z,73.30
2018-02-03T09:48:54.858Z,73.00
2018-02-03T09:51:22.472Z,72.90
2018-02-03T09:53:50.051Z,73.40
2018-02-03T09:56:17.671Z,73.70
2018-02-03T09:58:45.258Z,73.60
2018-02-03T10:01:12.868Z,73.30
2018-02-03T10:03:41.214Z,73.40
2018-02-03T10:06:08.890Z,73.40
2018-02-03T10:08:36.559Z,74.30
2018-02-03T10:11:04.140Z,73.70
2018-02-03T10:13:32.515Z,73.70
2018-02-03T10:16:00.863Z,73.80
2018-02-03T10:18:28.470Z,73.80
2018-02-03T10:20:56.820Z,73.80
2018-02-03T10:23:24.419Z,73.70
2018-02-03T10:25:52.039Z,74.00
2018-02-03T10:28:19.643Z,74.00
2018-02-03T10:30:47.271Z,73.80
2018-02-03T10:33:14.923Z,73.60
2018-02-03T10:35:42.596Z,74.10
2018-02-03T10:38:10.200Z,73.40
2018-02-03T10:40:37.779Z,73.90
2018-02-03T10:43:05.471Z,73.90
2018-02-03T10:45:33.148Z,73.80
2018-02-03T10:48:00.747Z,73.80
2018-02-03T10:50:28.371Z,73.50
2018-02-03T10:52:56.028Z,73.60
2018-02-03T10:55:23.687Z,73.60
2018-02-03T10:57:51.301Z,73.90
2018-02-03T11:00:18.884Z,73.60
2018-02-03T11:02:46.507Z,73.80
2018-02-03T11:05:14.860Z,73.90
2018-02-03T11:07:42.539Z,73.90
2018-02-03T11:10:10.915Z,73.70
2018-02-03T11:12:39.264Z,73.50
2018-02-03T11:15:06.931Z,73.50
2018-02-03T11:17:34.609Z,73.30
2018-02-03T11:20:02.225Z,72.60
2018-02-03T11:22:29.888Z,72.50
2018-02-03T11:24:57.587Z,72.00
2018-02-03T11:27:25.316Z,72.30
2018-02-03T11:29:52.923Z,72.50
2018-02-03T11:32:20.586Z,72.40
2018-02-03T11:34:49.070Z,72.80
2018-02-03T11:37:17.427Z,73.10
2018-02-03T11:39:45.031Z,73.10
2018-02-03T11:42:12.615Z,73.20
2018-02-03T11:44:40.224Z,72.90
2018-02-03T11:49:31.530Z,73.30
2018-02-03T11:51:59.139Z,73.50
2018-02-03T11:54:27.699Z,73.60
2018-02-03T11:56:55.364Z,73.50
2018-02-03T11:59:22.943Z,73.50
2018-02-03T12:01:51.307Z,73.20
2018-02-03T12:04:18.968Z,73.20
2018-02-03T12:06:46.588Z,73.00
2018-02-03T12:09:14.182Z,73.00
2018-02-03T12:11:41.863Z,72.90
2018-02-03T12:14:09.521Z,73.10
2018-02-03T12:16:37.907Z,73.20
2018-02-03T12:19:06.275Z,72.20
2018-02-03T12:21:33.930Z,72.20
2018-02-03T12:24:01.605Z,72.40
2018-02-03T12:26:29.190Z,73.60
2018-02-03T12:28:57.559Z,72.10
2018-02-03T12:31:25.907Z,72.10
2018-02-03T12:33:53.515Z,72.10
2018-02-03T12:36:21.104Z,72.10
2018-02-03T12:38:48.707Z,72.10
2018-02-03T12:41:16.292Z,72.10
2018-02-03T12:43:43.903Z,71.80
2018-02-03T12:46:11.493Z,72.10
2018-02-03T12:48:39.875Z,73.10
2018-02-03T12:51:08.234Z,72.90
2018-02-03T12:53:35.874Z,72.10
2018-02-03T12:56:03.462Z,72.00
2018-02-03T12:58:31.059Z,71.80
2018-02-03T13:00:59.407Z,71.30
2018-02-03T13:03:27.036Z,71.30
2018-02-03T13:05:54.611Z,71.00
2018-02-03T13:08:22.208Z,71.30
2018-02-03T13:10:50.592Z,71.60
2018-02-03T13:13:18.942Z,71.20
2018-02-03T13:15:46.622Z,71.20
2018-02-03T13:18:14.342Z,71.20
2018-02-03T13:20:41.972Z,71.20
2018-02-03T13:23:09.550Z,70.70
2018-02-03T13:25:37.259Z,69.90
2018-02-03T13:28:04.840Z,70.30
2018-02-03T13:30:33.215Z,69.40
2018-02-03T13:33:00.800Z,69.40
2018-02-03T13:35:28.412Z,70.30
2018-02-03T13:37:55.986Z,69.50
2018-02-03T13:40:23.582Z,70.00
2018-02-03T13:42:51.207Z,70.30
2018-02-03T13:45:18.873Z,70.00
2018-02-03T13:47:46.544Z,69.60
2018-02-03T13:50:14.208Z,69.00
2018-02-03T13:52:41.860Z,68.60
2018-02-03T13:55:09.519Z,68.30
2018-02-03T13:57:37.183Z,67.40
2018-02-03T14:00:04.758Z,67.40
2018-02-03T14:02:32.414Z,67.60
2018-02-03T14:05:00.072Z,66.90
2018-02-03T14:07:28.440Z,66.00
2018-02-03T14:09:56.024Z,66.00
2018-02-03T14:12:24.398Z,65.90
2018-02-03T14:14:51.992Z,65.80
2018-02-03T14:17:19.604Z,65.40
2018-02-03T14:19:47.993Z,63.90
2018-02-03T14:22:15.591Z,64.70
2018-02-03T14:24:48.642Z,63.60
2018-02-03T14:27:17.127Z,62.90
2018-02-03T14:29:44.707Z,62.80
2018-02-03T14:32:13.176Z,62.80
2018-02-03T14:34:40.782Z,62.70
2018-02-03T14:37:08.374Z,63.50
2018-02-03T14:39:36.056Z,62.80
2018-02-03T14:42:03.725Z,62.90
2018-02-03T14:44:31.384Z,62.70
2018-02-03T14:46:58.967Z,61.90
2018-02-03T14:49:27.331Z,62.10
2018-02-03T14:51:55.694Z,62.00
2018-02-03T14:54:23.359Z,62.00
2018-02-03T14:56:51.035Z,61.80
2018-02-03T14:59:18.648Z,62.00
2018-02-03T15:01:46.246Z,61.90
2018-02-03T15:04:13.847Z,61.60
2018-02-03T15:06:41.471Z,61.50
2018-02-03T15:09:09.056Z,61.40
2018-02-03T15:11:37.418Z,61.90
2018-02-03T15:14:06.508Z,61.70
2018-02-03T15:16:34.107Z,61.60
2018-02-03T15:19:01.719Z,61.70
2018-02-03T15:21:29.396Z,61.70
2018-02-03T15:23:56.985Z,61.90
2018-02-03T15:26:25.440Z,62.10
2018-02-03T15:28:53.018Z,62.10
2018-02-03T15:31:21.387Z,62.00
2018-02-03T15:33:49.035Z,61.90
2018-02-03T15:36:16.699Z,62.00
2018-02-03T15:38:44.275Z,62.10
2018-02-03T15:41:11.879Z,62.20
2018-02-03T15:43:39.459Z,62.30
2018-02-03T15:46:07.059Z,62.00
2018-02-03T15:48:34.638Z,61.80
2018-02-03T15:51:03.083Z,62.20
2018-02-03T15:53:30.697Z,62.20
2018-02-03T15:55:58.285Z,62.20
2018-02-03T15:58:25.890Z,62.40
2018-02-03T16:00:54.239Z,62.50
2018-02-03T16:03:21.852Z,62.50
2018-02-03T16:05:49.444Z,62.70
2018-02-03T16:08:17.135Z,62.60
2018-02-03T16:10:44.798Z,62.60
2018-02-03T16:13:12.459Z,62.70
2018-02-03T16:15:40.040Z,62.70
2018-02-03T16:18:08.502Z,62.80
2018-02-03T16:20:36.167Z,62.80
2018-02-03T16:23:05.274Z,62.60
2018-02-03T16:25:32.995Z,62.60
2018-02-03T16:28:00.595Z,63.50
2018-02-03T16:30:28.258Z,62.80
2018-02-03T16:32:55.839Z,62.80
2018-02-03T16:35:24.219Z,62.60
2018-02-03T16:37:51.959Z,62.60
2018-02-03T16:40:19.564Z,62.40
2018-02-03T16:42:47.148Z,62.60
2018-02-03T16:45:14.746Z,63.00
2018-02-03T16:47:42.319Z,63.10
2018-02-03T16:50:10.782Z,62.90
2018-02-03T16:52:38.379Z,62.80
2018-02-03T16:55:06.758Z,62.70
2018-02-03T16:57:35.123Z,65.40
2018-02-03T17:00:03.590Z,66.80
2018-02-03T17:02:31.177Z,66.80
2018-02-03T17:04:59.561Z,67.90
2018-02-03T17:07:27.920Z,69.50
2018-02-03T17:09:55.573Z,69.60
2018-02-03T17:12:23.151Z,68.30
2018-02-03T17:14:51.515Z,65.80
2018-02-03T17:17:19.887Z,65.10
2018-02-03T17:19:47.486Z,65.10
2018-02-03T17:22:15.064Z,64.50
2018-02-03T17:24:42.770Z,64.10
2018-02-03T17:27:11.176Z,64.00
2018-02-03T17:29:38.775Z,63.90
2018-02-03T17:32:06.411Z,63.90
2018-02-03T17:34:34.047Z,64.10
2018-02-03T17:37:08.027Z,64.40
2018-02-03T17:39:35.635Z,64.40
2018-02-03T17:42:03.274Z,64.70
2018-02-03T17:44:31.643Z,65.00
2018-02-03T17:47:16.114Z,64.80
2018-02-03T17:49:44.486Z,65.20
2018-02-03T17:52:12.967Z,65.40
2018-02-03T17:54:41.338Z,65.60
2018-02-03T17:57:14.672Z,65.50
2018-02-03T17:59:42.714Z,66.30
2018-02-03T18:02:11.109Z,66.00
2018-02-03T18:04:38.758Z,65.80
2018-02-03T18:07:07.155Z,66.20
2018-02-03T18:09:34.807Z,66.10
2018-02-03T18:12:03.286Z,66.20
2018-02-03T18:14:31.665Z,66.30
2018-02-03T18:17:00.060Z,66.40
2018-02-03T18:19:27.775Z,66.30
2018-02-03T18:21:56.205Z,66.40
2018-02-03T18:24:23.851Z,66.40
2018-02-03T18:26:52.308Z,66.40
2018-02-03T18:29:19.919Z,66.50
2018-02-03T18:31:47.666Z,66.50
2018-02-03T18:34:16.135Z,66.50
2018-02-03T18:36:43.916Z,66.60
2018-02-03T18:39:12.295Z,66.40
2018-02-03T18:41:40.686Z,66.40
2018-02-03T18:44:08.331Z,66.40
2018-02-03T18:46:36.727Z,66.30
2018-02-03T18:49:04.371Z,66.30
2018-02-03T18:51:32.868Z,66.40
2018-02-03T18:54:00.585Z,66.30
2018-02-03T18:56:28.187Z,66.40
2018-02-03T18:58:56.582Z,66.40
2018-02-03T19:01:24.232Z,66.40
2018-02-03T19:03:52.707Z,66.50
2018-02-03T19:06:21.187Z,66.50
2018-02-03T19:08:49.668Z,66.60
2018-02-03T19:11:18.039Z,66.90
2018-02-03T19:13:46.439Z,68.00
2018-02-03T19:16:14.830Z,67.30
2018-02-03T19:18:42.467Z,67.30
2018-02-03T19:21:10.838Z,67.80
2018-02-03T19:23:38.514Z,67.80
2018-02-03T19:26:06.891Z,68.40
2018-02-03T19:28:35.384Z,68.80
2018-02-03T19:31:03.768Z,69.20
2018-02-03T19:33:31.580Z,69.20
2018-02-03T19:35:59.589Z,69.50
2018-02-03T19:38:27.254Z,70.00
2018-02-03T19:40:55.664Z,70.60
2018-02-03T19:43:23.355Z,70.60
2018-02-03T19:45:51.014Z,70.90
2018-02-03T19:48:18.726Z,71.10
2018-02-03T19:50:47.138Z,71.50
2018-02-03T19:53:14.751Z,71.50
2018-02-03T19:55:42.388Z,71.60
2018-02-03T19:58:10.123Z,71.80
2018-02-03T20:00:37.755Z,71.80
2018-02-03T20:03:06.136Z,71.90
2018-02-03T20:05:34.550Z,72.10
2018-02-03T20:08:02.187Z,72.10
2018-02-03T20:10:29.950Z,72.00
2018-02-03T20:12:58.427Z,72.20
2018-02-03T20:15:26.807Z,72.30
2018-02-03T20:17:55.235Z,72.20
2018-02-03T20:20:22.855Z,72.20
2018-02-03T20:22:50.500Z,72.20
2018-02-03T20:25:18.995Z,72.30
2018-02-03T20:27:47.415Z,72.30
2018-02-03T20:30:15.104Z,72.30
2018-02-03T20:32:42.802Z,72.30
2018-02-03T20:35:11.190Z,72.50
2018-02-03T20:37:38.847Z,72.50
2018-02-03T20:40:07.235Z,72.60
2018-02-03T20:42:34.897Z,72.60
2018-02-03T20:45:02.515Z,72.50
2018-02-03T20:47:30.151Z,72.50
2018-02-03T20:49:57.776Z,72.30
2018-02-03T20:52:26.174Z,72.30
2018-02-03T20:54:53.820Z,72.30
2018-02-03T20:57:21.452Z,72.20
2018-02-03T20:59:49.086Z,72.10
2018-02-03T21:02:16.709Z,72.20
2018-02-03T21:04:44.359Z,72.10
2018-02-03T21:07:12.735Z,72.00
2018-02-03T21:09:41.140Z,72.10
2018-02-03T21:12:08.768Z,72.00
2018-02-03T21:14:36.446Z,72.10
2018-02-03T21:17:04.854Z,72.00
2018-02-03T21:19:32.491Z,72.00
2018-02-03T21:22:00.989Z,72.00
2018-02-03T21:24:28.739Z,71.90
2018-02-03T21:26:57.135Z,72.00
2018-02-03T21:29:24.883Z,72.10
2018-02-03T21:31:53.367Z,72.00
2018-02-03T21:34:21.847Z,72.00
2018-02-03T21:36:50.336Z,72.10
2018-02-03T21:39:17.980Z,72.00
2018-02-03T21:41:46.374Z,72.40
2018-02-03T21:44:14.862Z,71.90
2018-02-03T21:46:42.525Z,71.90
2018-02-03T21:49:10.912Z,71.80
2018-02-03T21:51:38.558Z,71.80
2018-02-03T21:54:06.945Z,71.80
2018-02-03T21:56:35.355Z,71.80
2018-02-03T21:59:02.988Z,71.80
2018-02-03T22:01:31.466Z,71.80
2018-02-03T22:03:59.946Z,72.70
2018-02-03T22:06:28.350Z,72.00
2018-02-03T22:08:55.990Z,71.90
2018-02-03T22:11:23.650Z,72.00
2018-02-03T22:13:52.031Z,71.90
2018-02-03T22:16:20.432Z,71.90
2018-02-03T22:18:48.036Z,71.90
2018-02-03T22:21:15.666Z,71.80
2018-02-03T22:23:43.304Z,71.90
2018-02-03T22:26:11.067Z,71.80
2018-02-03T22:28:38.688Z,71.80
2018-02-03T22:31:06.396Z,71.80
2018-02-03T22:33:34.031Z,71.90
2018-02-03T22:36:01.619Z,72.00
2018-02-03T22:38:30.078Z,72.10
2018-02-03T22:40:57.754Z,72.10
2018-02-03T22:43:25.365Z,72.10
2018-02-03T22:45:52.970Z,72.10
2018-02-03T22:48:21.371Z,72.10
2018-02-03T22:50:49.036Z,72.10
2018-02-03T22:53:16.674Z,72.10
2018-02-03T22:55:44.251Z,72.10
2018-02-03T22:58:12.656Z,72.20
2018-02-03T23:00:40.267Z,72.20
2018-02-03T23:03:07.902Z,72.20
2018-02-03T23:05:35.635Z,72.30
2018-02-03T23:08:05.070Z,72.40
2018-02-03T23:10:32.671Z,72.30
2018-02-03T23:13:00.280Z,72.30
2018-02-03T23:15:27.865Z,72.30
2018-02-03T23:17:55.566Z,72.30
2018-02-03T23:20:24.050Z,72.40
2018-02-03T23:22:51.710Z,72.40
2018-02-03T23:25:20.110Z,72.40
2018-02-03T23:27:47.724Z,72.40
2018-02-03T23:30:15.421Z,72.40
2018-02-03T23:32:43.049Z,72.40
2018-02-03T23:35:10.654Z,72.40
2018-02-03T23:37:38.298Z,72.40
2018-02-03T23:40:05.903Z,72.40
2018-02-03T23:42:33.531Z,72.30
2018-02-03T23:45:01.931Z,72.30
2018-02-03T23:47:30.388Z,72.30
2018-02-03T23:49:58.787Z,72.30
2018-02-03T23:52:26.440Z,72.20
2018-02-03T23:54:54.099Z,72.10
2018-02-03T23:57:21.720Z,72.20
2018-02-03T23:59:49.376Z,72.10
